Terminal Aerodrome Forecast
Issued by NWS Sioux Falls, SD

Home | Current Version | Previous Version | Text Only | Print | Product List | Glossary Off
Versions: 1 2 3 4 5 6 7 8 9 10 11 12 13 14 15 16

945
FTUS43 KFSD 122337
TAFHON
TAF
KHON 122337Z 1300/1324 21007KT P6SM FEW250
     FM130400 24010KT P6SM SCT250 WS015/30035KT
     FM130800 31015G27KT P6SM BKN150 WS015/32045KT
     FM131300 32026G39KT P6SM BKN110
     FM131600 33026G40KT P6SM OVC030
     FM132200 33021G31KT P6SM BKN025=

USA.gov is the U.S. government's official web portal to all federal, state and local government web resources and services.